Meloi — 3FOD — position and weather

sailwx.info

Track history (hours):
 
Tides and Currents Weather Stations Pressure Air Temp Water Temp Dewpoint Dewpoint Depression Visibility Wind Speed Wind Dir Waves Ship Positions

Meloi

Last reported at 2017-Nov-18 13:59 UTC. Time now 2017-Nov-18 14:21 UTC.
Position N 29°45' W 095°10'.

Length 180 m; draft 6.4 m.

Type: Ship. MMSI: 351132000.

Date/timePositionNaut miles runAvg speedWind from/ knotsBaromVisibWave heightAir tempDewpointWater temp
2017-Nov-18 13:59N 29°45' W 095°10'0 0.0
2017-Nov-18 13:29N 29°45' W 095°10'0 0.0
2017-Nov-18 12:59N 29°45' W 095°10'0 0.0
2017-Nov-18 12:26N 29°45' W 095°10'0 0.0
2017-Nov-18 11:59N 29°45' W 095°10'0 0.0
2017-Nov-18 11:29N 29°45' W 095°10'0 0.0
2017-Nov-18 10:56N 29°45' W 095°10'0 0.0
2017-Nov-18 10:29N 29°45' W 095°10'0 0.0
2017-Nov-18 09:59N 29°45' W 095°10'0 0.0
2017-Nov-18 09:23N 29°45' W 095°10'0 0.0
2017-Nov-18 08:59N 29°45' W 095°10'0 0.0
2017-Nov-18 08:29N 29°45' W 095°10'0 0.0
2017-Nov-18 07:59N 29°45' W 095°10'0 0.0
2017-Nov-18 07:29N 29°45' W 095°10'0 0.0
2017-Nov-18 06:59N 29°45' W 095°10'0 0.0
2017-Nov-18 06:29N 29°45' W 095°10'0 0.0
2017-Nov-18 05:59N 29°45' W 095°10'0 0.0
2017-Nov-18 05:29N 29°45' W 095°10'0 0.0
2017-Nov-18 04:59N 29°45' W 095°10'0 0.0
2017-Nov-18 04:29N 29°45' W 095°10'0 0.0
2017-Nov-18 03:59N 29°45' W 095°10'0 0.0
2017-Nov-18 03:29N 29°45' W 095°10'0 0.0
2017-Nov-18 02:59N 29°45' W 095°10'0 0.0
2017-Nov-18 02:29N 29°45' W 095°10'0 0.0
2017-Nov-18 01:59N 29°45' W 095°10'0 0.0
2017-Nov-18 01:29N 29°45' W 095°10'0 0.0
2017-Nov-18 00:59N 29°45' W 095°10'0 0.0
2017-Nov-18 00:29N 29°45' W 095°10'0 0.0
2017-Nov-17 23:59N 29°45' W 095°10'0 0.0
2017-Nov-17 23:26N 29°45' W 095°10'0 0.0
2017-Nov-17 22:59N 29°45' W 095°10'0 0.0
2017-Nov-17 22:29N 29°45' W 095°10'0 0.0
2017-Nov-17 21:59N 29°45' W 095°10'0 0.0
2017-Nov-17 21:29N 29°45' W 095°10'0 0.0
2017-Nov-17 20:59N 29°45' W 095°10'0 0.0
2017-Nov-17 20:29N 29°45' W 095°10'0 0.0
2017-Nov-17 19:59N 29°45' W 095°10'0 0.0
2017-Nov-17 19:29N 29°45' W 095°10'0 0.0
2017-Nov-17 18:59N 29°45' W 095°10'0 0.0
2017-Nov-17 18:29N 29°45' W 095°10'0 0.0
2017-Nov-17 17:59N 29°45' W 095°10'0 0.0
2017-Nov-17 17:29N 29°45' W 095°10'0 0.0
2017-Nov-17 16:59N 29°45' W 095°10'0 0.0
2017-Nov-17 16:29N 29°45' W 095°10'0 0.0
2017-Nov-17 15:56N 29°45' W 095°10'0 0.0
2017-Nov-17 15:29N 29°45' W 095°10'0 0.0
2017-Nov-17 14:59N 29°45' W 095°10'0 0.0
2017-Nov-17 14:29N 29°45' W 095°10'0 0.0
2017-Nov-17 13:59N 29°45' W 095°10'0 0.0
2017-Nov-17 13:29N 29°45' W 095°10'0 0.0
2017-Nov-17 12:59N 29°45' W 095°10'0 0.0
2017-Nov-17 12:29N 29°45' W 095°10'0 0.0
2017-Nov-17 11:59N 29°45' W 095°10'0 0.0
2017-Nov-17 11:29N 29°45' W 095°10'0 0.0
2017-Nov-17 10:59N 29°45' W 095°10'0 0.0
2017-Nov-17 10:29N 29°45' W 095°10'0 0.0
2017-Nov-17 09:59N 29°45' W 095°10'0 0.0
2017-Nov-17 09:29N 29°45' W 095°10'0 0.0
2017-Nov-17 08:59N 29°45' W 095°10'0 0.0
2017-Nov-17 08:29N 29°45' W 095°10'0 0.0
2017-Nov-17 07:59N 29°45' W 095°10'0 0.0
2017-Nov-17 07:26N 29°45' W 095°10'0 0.0
2017-Nov-17 06:59N 29°45' W 095°10'0 0.0
2017-Nov-17 06:29N 29°45' W 095°10'0 0.0
2017-Nov-17 05:59N 29°45' W 095°10'0 0.0
2017-Nov-17 05:29N 29°45' W 095°10'0 0.0
2017-Nov-17 04:59N 29°45' W 095°10'0 0.0
2017-Nov-17 04:29N 29°45' W 095°10'0 0.0
2017-Nov-17 04:00N 29°45' W 095°10'2 3.0
2017-Nov-17 03:30N 29°44' W 095°09'3 5.8
2017-Nov-17 03:00N 29°45' W 095°06'3 6.5
2017-Nov-17 02:30N 29°44' W 095°02'4 7.8
2017-Nov-17 02:00N 29°41' W 094°59'611.7
2017-Nov-17 01:30N 29°36' W 094°57'713.2
2017-Nov-17 01:00N 29°30' W 094°52'713.9
2017-Nov-17 00:30N 29°24' W 094°49'612.8
2017-Nov-17 00:00N 29°21' W 094°43'11 1.4
2017-Nov-16 15:56N 29°17' W 094°31'0 0.0
2017-Nov-16 14:21N 29°17' W 094°31'0 0.0
2017-Nov-16 13:51N 29°17' W 094°31'0 0.0
2017-Nov-16 13:30N 29°17' W 094°31'  
Track history (hours):
 
Tides and Currents Weather Stations Pressure Air Temp Water Temp Dewpoint Dewpoint Depression Visibility Wind Speed Wind Dir Waves Ship Positions

Meloi

Last reported at 2017-Nov-18 13:59 UTC. Time now 2017-Nov-18 14:21 UTC.
Position N 29°45' W 095°10'.

Length 180 m; draft 6.4 m.

Type: Ship. MMSI: 351132000.

Date/timePositionNaut miles runAvg speedWind from/ knotsBaromVisibWave heightAir tempDewpointWater temp
2017-Nov-18 13:59N 29°45' W 095°10'0 0.0
2017-Nov-18 13:29N 29°45' W 095°10'0 0.0
2017-Nov-18 12:59N 29°45' W 095°10'0 0.0
2017-Nov-18 12:26N 29°45' W 095°10'0 0.0
2017-Nov-18 11:59N 29°45' W 095°10'0 0.0
2017-Nov-18 11:29N 29°45' W 095°10'0 0.0
2017-Nov-18 10:56N 29°45' W 095°10'0 0.0
2017-Nov-18 10:29N 29°45' W 095°10'0 0.0
2017-Nov-18 09:59N 29°45' W 095°10'0 0.0
2017-Nov-18 09:23N 29°45' W 095°10'0 0.0
2017-Nov-18 08:59N 29°45' W 095°10'0 0.0
2017-Nov-18 08:29N 29°45' W 095°10'0 0.0
2017-Nov-18 07:59N 29°45' W 095°10'0 0.0
2017-Nov-18 07:29N 29°45' W 095°10'0 0.0
2017-Nov-18 06:59N 29°45' W 095°10'0 0.0
2017-Nov-18 06:29N 29°45' W 095°10'0 0.0
2017-Nov-18 05:59N 29°45' W 095°10'0 0.0
2017-Nov-18 05:29N 29°45' W 095°10'0 0.0
2017-Nov-18 04:59N 29°45' W 095°10'0 0.0
2017-Nov-18 04:29N 29°45' W 095°10'0 0.0
2017-Nov-18 03:59N 29°45' W 095°10'0 0.0
2017-Nov-18 03:29N 29°45' W 095°10'0 0.0
2017-Nov-18 02:59N 29°45' W 095°10'0 0.0
2017-Nov-18 02:29N 29°45' W 095°10'0 0.0
2017-Nov-18 01:59N 29°45' W 095°10'0 0.0
2017-Nov-18 01:29N 29°45' W 095°10'0 0.0
2017-Nov-18 00:59N 29°45' W 095°10'0 0.0
2017-Nov-18 00:29N 29°45' W 095°10'0 0.0
2017-Nov-17 23:59N 29°45' W 095°10'0 0.0
2017-Nov-17 23:26N 29°45' W 095°10'0 0.0
2017-Nov-17 22:59N 29°45' W 095°10'0 0.0
2017-Nov-17 22:29N 29°45' W 095°10'0 0.0
2017-Nov-17 21:59N 29°45' W 095°10'0 0.0
2017-Nov-17 21:29N 29°45' W 095°10'0 0.0
2017-Nov-17 20:59N 29°45' W 095°10'0 0.0
2017-Nov-17 20:29N 29°45' W 095°10'0 0.0
2017-Nov-17 19:59N 29°45' W 095°10'0 0.0
2017-Nov-17 19:29N 29°45' W 095°10'0 0.0
2017-Nov-17 18:59N 29°45' W 095°10'0 0.0
2017-Nov-17 18:29N 29°45' W 095°10'0 0.0
2017-Nov-17 17:59N 29°45' W 095°10'0 0.0
2017-Nov-17 17:29N 29°45' W 095°10'0 0.0
2017-Nov-17 16:59N 29°45' W 095°10'0 0.0
2017-Nov-17 16:29N 29°45' W 095°10'0 0.0
2017-Nov-17 15:56N 29°45' W 095°10'0 0.0
2017-Nov-17 15:29N 29°45' W 095°10'0 0.0
2017-Nov-17 14:59N 29°45' W 095°10'0 0.0
2017-Nov-17 14:29N 29°45' W 095°10'0 0.0
2017-Nov-17 13:59N 29°45' W 095°10'0 0.0
2017-Nov-17 13:29N 29°45' W 095°10'0 0.0
2017-Nov-17 12:59N 29°45' W 095°10'0 0.0
2017-Nov-17 12:29N 29°45' W 095°10'0 0.0
2017-Nov-17 11:59N 29°45' W 095°10'0 0.0
2017-Nov-17 11:29N 29°45' W 095°10'0 0.0
2017-Nov-17 10:59N 29°45' W 095°10'0 0.0
2017-Nov-17 10:29N 29°45' W 095°10'0 0.0
2017-Nov-17 09:59N 29°45' W 095°10'0 0.0
2017-Nov-17 09:29N 29°45' W 095°10'0 0.0
2017-Nov-17 08:59N 29°45' W 095°10'0 0.0
2017-Nov-17 08:29N 29°45' W 095°10'0 0.0
2017-Nov-17 07:59N 29°45' W 095°10'0 0.0
2017-Nov-17 07:26N 29°45' W 095°10'0 0.0
2017-Nov-17 06:59N 29°45' W 095°10'0 0.0
2017-Nov-17 06:29N 29°45' W 095°10'0 0.0
2017-Nov-17 05:59N 29°45' W 095°10'0 0.0
2017-Nov-17 05:29N 29°45' W 095°10'0 0.0
2017-Nov-17 04:59N 29°45' W 095°10'0 0.0
2017-Nov-17 04:29N 29°45' W 095°10'0 0.0
2017-Nov-17 04:00N 29°45' W 095°10'2 3.0
2017-Nov-17 03:30N 29°44' W 095°09'3 5.8
2017-Nov-17 03:00N 29°45' W 095°06'3 6.5
2017-Nov-17 02:30N 29°44' W 095°02'4 7.8
2017-Nov-17 02:00N 29°41' W 094°59'611.7
2017-Nov-17 01:30N 29°36' W 094°57'713.2
2017-Nov-17 01:00N 29°30' W 094°52'713.9
2017-Nov-17 00:30N 29°24' W 094°49'612.8
2017-Nov-17 00:00N 29°21' W 094°43'11 1.4
2017-Nov-16 15:56N 29°17' W 094°31'0 0.0
2017-Nov-16 14:21N 29°17' W 094°31'0 0.0
2017-Nov-16 13:51N 29°17' W 094°31'0 0.0
2017-Nov-16 13:30N 29°17' W 094°31'  

Dump ship's entire track history